sensor_id;sensor_type;location;lat;lon;timestamp;P1;durP1;ratioP1;P2;durP2;ratioP2
57341;SDS011;43175;51.002;18.316;2022-10-19T00:00:50;19.50;;;10.30;;
57341;SDS011;43175;51.002;18.316;2022-10-19T00:03:16;18.40;;;9.40;;
57341;SDS011;43175;51.002;18.316;2022-10-19T00:05:41;18.50;;;8.90;;
57341;SDS011;43175;51.002;18.316;2022-10-19T00:08:07;18.60;;;9.30;;
57341;SDS011;43175;51.002;18.316;2022-10-19T00:10:33;16.00;;;9.10;;
57341;SDS011;43175;51.002;18.316;2022-10-19T00:12:58;16.70;;;9.00;;
57341;SDS011;43175;51.002;18.316;2022-10-19T00:15:24;20.60;;;9.70;;
57341;SDS011;43175;51.002;18.316;2022-10-19T00:17:50;20.00;;;10.70;;
57341;SDS011;43175;51.002;18.316;2022-10-19T00:20:15;18.50;;;10.20;;
57341;SDS011;43175;51.002;18.316;2022-10-19T00:22:41;24.20;;;12.80;;
57341;SDS011;43175;51.002;18.316;2022-10-19T00:25:07;22.70;;;13.10;;
57341;SDS011;43175;51.002;18.316;2022-10-19T00:27:33;23.00;;;13.40;;
57341;SDS011;43175;51.002;18.316;2022-10-19T00:30:00;22.10;;;13.00;;
57341;SDS011;43175;51.002;18.316;2022-10-19T00:32:25;25.50;;;14.00;;
57341;SDS011;43175;51.002;18.316;2022-10-19T00:34:51;24.20;;;14.70;;
57341;SDS011;43175;51.002;18.316;2022-10-19T00:37:16;25.20;;;14.60;;
57341;SDS011;43175;51.002;18.316;2022-10-19T00:39:42;23.50;;;13.60;;
57341;SDS011;43175;51.002;18.316;2022-10-19T00:42:09;23.90;;;13.70;;
57341;SDS011;43175;51.002;18.316;2022-10-19T00:47:04;23.00;;;14.40;;
57341;SDS011;43175;51.002;18.316;2022-10-19T00:49:32;23.70;;;14.50;;
57341;SDS011;43175;51.002;18.316;2022-10-19T00:52:02;27.60;;;14.70;;
57341;SDS011;43175;51.002;18.316;2022-10-19T00:54:32;26.80;;;14.40;;
57341;SDS011;43175;51.002;18.316;2022-10-19T00:57:02;26.80;;;14.80;;
57341;SDS011;43175;51.002;18.316;2022-10-19T00:59:28;26.60;;;14.90;;
57341;SDS011;43175;51.002;18.316;2022-10-19T01:01:57;23.90;;;15.10;;
57341;SDS011;43175;51.002;18.316;2022-10-19T01:04:24;23.30;;;13.70;;
57341;SDS011;43175;51.002;18.316;2022-10-19T01:06:51;24.50;;;14.80;;
57341;SDS011;43175;51.002;18.316;2022-10-19T01:09:17;26.80;;;14.70;;
57341;SDS011;43175;51.002;18.316;2022-10-19T01:11:54;26.60;;;15.00;;
57341;SDS011;43175;51.002;18.316;2022-10-19T01:28:24;24.30;;;13.60;;
57341;SDS011;43175;51.002;18.316;2022-10-19T01:33:47;25.10;;;14.60;;
57341;SDS011;43175;51.002;18.316;2022-10-19T01:36:24;25.40;;;14.90;;
57341;SDS011;43175;51.002;18.316;2022-10-19T01:41:33;32.50;;;15.20;;
57341;SDS011;43175;51.002;18.316;2022-10-19T01:46:40;25.20;;;14.00;;
57341;SDS011;43175;51.002;18.316;2022-10-19T01:49:26;28.10;;;14.50;;
57341;SDS011;43175;51.002;18.316;2022-10-19T01:51:58;25.50;;;14.50;;
57341;SDS011;43175;51.002;18.316;2022-10-19T01:54:27;26.20;;;14.80;;
57341;SDS011;43175;51.002;18.316;2022-10-19T01:56:55;24.90;;;14.90;;
57341;SDS011;43175;51.002;18.316;2022-10-19T01:59:23;25.90;;;15.00;;
57341;SDS011;43175;51.002;18.316;2022-10-19T02:01:49;29.40;;;15.60;;
57341;SDS011;43175;51.002;18.316;2022-10-19T02:04:16;24.80;;;14.20;;
57341;SDS011;43175;51.002;18.316;2022-10-19T02:06:43;25.70;;;14.00;;
57341;SDS011;43175;51.002;18.316;2022-10-19T02:09:09;29.40;;;14.30;;
57341;SDS011;43175;51.002;18.316;2022-10-19T02:11:42;29.90;;;14.30;;
57341;SDS011;43175;51.002;18.316;2022-10-19T02:14:10;26.60;;;14.30;;
57341;SDS011;43175;51.002;18.316;2022-10-19T02:16:43;27.00;;;14.60;;
57341;SDS011;43175;51.002;18.316;2022-10-19T02:19:13;25.90;;;14.80;;
57341;SDS011;43175;51.002;18.316;2022-10-19T02:21:40;27.70;;;14.50;;
57341;SDS011;43175;51.002;18.316;2022-10-19T02:24:06;30.20;;;14.90;;
57341;SDS011;43175;51.002;18.316;2022-10-19T02:26:31;27.60;;;15.20;;
57341;SDS011;43175;51.002;18.316;2022-10-19T02:28:57;27.80;;;14.60;;
57341;SDS011;43175;51.002;18.316;2022-10-19T02:31:23;25.40;;;14.60;;
57341;SDS011;43175;51.002;18.316;2022-10-19T02:33:49;26.60;;;14.60;;
57341;SDS011;43175;51.002;18.316;2022-10-19T02:36:16;27.70;;;14.50;;
57341;SDS011;43175;51.002;18.316;2022-10-19T02:38:42;25.80;;;14.10;;
57341;SDS011;43175;51.002;18.316;2022-10-19T02:41:17;30.00;;;14.50;;
57341;SDS011;43175;51.002;18.316;2022-10-19T02:43:57;24.80;;;13.20;;
57341;SDS011;43175;51.002;18.316;2022-10-19T02:46:34;24.10;;;14.20;;
57341;SDS011;43175;51.002;18.316;2022-10-19T02:49:02;23.10;;;13.90;;
57341;SDS011;43175;51.002;18.316;2022-10-19T02:54:22;25.60;;;14.00;;
57341;SDS011;43175;51.002;18.316;2022-10-19T02:56:48;30.00;;;15.10;;
57341;SDS011;43175;51.002;18.316;2022-10-19T02:59:13;25.00;;;13.60;;
57341;SDS011;43175;51.002;18.316;2022-10-19T03:01:39;26.60;;;13.80;;
57341;SDS011;43175;51.002;18.316;2022-10-19T03:04:04;28.20;;;14.30;;
57341;SDS011;43175;51.002;18.316;2022-10-19T03:06:29;29.20;;;14.50;;
57341;SDS011;43175;51.002;18.316;2022-10-19T03:08:55;31.60;;;13.70;;
57341;SDS011;43175;51.002;18.316;2022-10-19T03:11:20;27.70;;;14.80;;
57341;SDS011;43175;51.002;18.316;2022-10-19T03:13:46;28.80;;;14.30;;
57341;SDS011;43175;51.002;18.316;2022-10-19T03:16:11;30.90;;;15.30;;
57341;SDS011;43175;51.002;18.316;2022-10-19T03:18:38;26.80;;;14.50;;
57341;SDS011;43175;51.002;18.316;2022-10-19T03:21:05;31.10;;;14.30;;
57341;SDS011;43175;51.002;18.316;2022-10-19T03:23:32;24.20;;;13.80;;
57341;SDS011;43175;51.002;18.316;2022-10-19T03:25:58;27.10;;;14.40;;
57341;SDS011;43175;51.002;18.316;2022-10-19T03:28:24;28.90;;;14.20;;
57341;SDS011;43175;51.002;18.316;2022-10-19T03:30:49;26.70;;;14.60;;
57341;SDS011;43175;51.002;18.316;2022-10-19T03:33:15;28.50;;;15.00;;
57341;SDS011;43175;51.002;18.316;2022-10-19T03:35:40;29.80;;;14.60;;
57341;SDS011;43175;51.002;18.316;2022-10-19T03:38:05;31.20;;;15.20;;
57341;SDS011;43175;51.002;18.316;2022-10-19T03:40:31;28.70;;;15.90;;
57341;SDS011;43175;51.002;18.316;2022-10-19T03:42:57;28.00;;;16.40;;
57341;SDS011;43175;51.002;18.316;2022-10-19T03:45:22;28.90;;;16.40;;
57341;SDS011;43175;51.002;18.316;2022-10-19T03:47:49;30.70;;;17.90;;
57341;SDS011;43175;51.002;18.316;2022-10-19T03:50:14;36.60;;;18.40;;
57341;SDS011;43175;51.002;18.316;2022-10-19T03:52:41;35.00;;;18.60;;
57341;SDS011;43175;51.002;18.316;2022-10-19T03:55:07;31.10;;;18.10;;
57341;SDS011;43175;51.002;18.316;2022-10-19T03:57:34;35.70;;;18.20;;
57341;SDS011;43175;51.002;18.316;2022-10-19T04:00:00;38.10;;;19.10;;
57341;SDS011;43175;51.002;18.316;2022-10-19T04:02:26;30.50;;;17.70;;
57341;SDS011;43175;51.002;18.316;2022-10-19T04:04:51;33.00;;;17.60;;
57341;SDS011;43175;51.002;18.316;2022-10-19T04:07:16;34.20;;;17.60;;
57341;SDS011;43175;51.002;18.316;2022-10-19T04:09:42;33.20;;;17.60;;
57341;SDS011;43175;51.002;18.316;2022-10-19T04:12:07;32.00;;;18.10;;
57341;SDS011;43175;51.002;18.316;2022-10-19T04:14:33;32.10;;;17.60;;
57341;SDS011;43175;51.002;18.316;2022-10-19T04:16:59;35.30;;;18.10;;
57341;SDS011;43175;51.002;18.316;2022-10-19T04:19:25;29.80;;;17.90;;
57341;SDS011;43175;51.002;18.316;2022-10-19T04:21:51;37.00;;;18.70;;
57341;SDS011;43175;51.002;18.316;2022-10-19T04:24:17;39.10;;;18.30;;
57341;SDS011;43175;51.002;18.316;2022-10-19T04:26:44;31.30;;;17.70;;
57341;SDS011;43175;51.002;18.316;2022-10-19T04:29:11;33.10;;;17.20;;
57341;SDS011;43175;51.002;18.316;2022-10-19T04:31:37;32.80;;;18.10;;
57341;SDS011;43175;51.002;18.316;2022-10-19T04:34:03;34.10;;;18.20;;
57341;SDS011;43175;51.002;18.316;2022-10-19T04:36:29;35.70;;;18.40;;
57341;SDS011;43175;51.002;18.316;2022-10-19T04:38:55;33.40;;;17.80;;
57341;SDS011;43175;51.002;18.316;2022-10-19T04:41:21;36.20;;;18.40;;
57341;SDS011;43175;51.002;18.316;2022-10-19T04:43:47;34.20;;;18.50;;
57341;SDS011;43175;51.002;18.316;2022-10-19T04:46:15;33.20;;;18.20;;
57341;SDS011;43175;51.002;18.316;2022-10-19T04:48:42;34.50;;;18.20;;
57341;SDS011;43175;51.002;18.316;2022-10-19T04:51:08;36.50;;;18.90;;
57341;SDS011;43175;51.002;18.316;2022-10-19T04:53:35;36.60;;;18.60;;
57341;SDS011;43175;51.002;18.316;2022-10-19T04:56:05;34.70;;;18.80;;
57341;SDS011;43175;51.002;18.316;2022-10-19T04:58:32;33.80;;;18.70;;
57341;SDS011;43175;51.002;18.316;2022-10-19T05:00:58;30.90;;;18.20;;
57341;SDS011;43175;51.002;18.316;2022-10-19T05:03:23;37.20;;;19.30;;
57341;SDS011;43175;51.002;18.316;2022-10-19T05:05:49;39.80;;;20.00;;
57341;SDS011;43175;51.002;18.316;2022-10-19T05:08:14;35.70;;;18.50;;
57341;SDS011;43175;51.002;18.316;2022-10-19T05:10:40;36.00;;;19.10;;
57341;SDS011;43175;51.002;18.316;2022-10-19T05:13:05;46.80;;;20.60;;
57341;SDS011;43175;51.002;18.316;2022-10-19T05:15:31;39.20;;;20.60;;
57341;SDS011;43175;51.002;18.316;2022-10-19T05:17:56;38.60;;;19.80;;
57341;SDS011;43175;51.002;18.316;2022-10-19T05:20:22;36.90;;;20.20;;
57341;SDS011;43175;51.002;18.316;2022-10-19T05:22:48;37.30;;;20.20;;
57341;SDS011;43175;51.002;18.316;2022-10-19T05:25:14;35.70;;;19.50;;
57341;SDS011;43175;51.002;18.316;2022-10-19T05:27:40;39.30;;;20.50;;
57341;SDS011;43175;51.002;18.316;2022-10-19T05:30:05;39.80;;;20.50;;
57341;SDS011;43175;51.002;18.316;2022-10-19T05:32:33;44.50;;;20.80;;
57341;SDS011;43175;51.002;18.316;2022-10-19T05:34:59;40.70;;;21.90;;
57341;SDS011;43175;51.002;18.316;2022-10-19T05:37:24;39.30;;;21.60;;
57341;SDS011;43175;51.002;18.316;2022-10-19T05:39:50;36.70;;;21.10;;
57341;SDS011;43175;51.002;18.316;2022-10-19T05:42:16;39.60;;;21.80;;
57341;SDS011;43175;51.002;18.316;2022-10-19T05:44:41;38.20;;;20.70;;
57341;SDS011;43175;51.002;18.316;2022-10-19T05:47:07;37.10;;;21.50;;
57341;SDS011;43175;51.002;18.316;2022-10-19T05:49:32;42.50;;;20.70;;
57341;SDS011;43175;51.002;18.316;2022-10-19T05:51:58;43.10;;;22.30;;
57341;SDS011;43175;51.002;18.316;2022-10-19T05:54:24;40.10;;;22.40;;
57341;SDS011;43175;51.002;18.316;2022-10-19T05:56:49;44.80;;;21.80;;
57341;SDS011;43175;51.002;18.316;2022-10-19T05:59:16;41.80;;;21.90;;
57341;SDS011;43175;51.002;18.316;2022-10-19T06:01:43;37.40;;;21.40;;
57341;SDS011;43175;51.002;18.316;2022-10-19T06:04:09;41.50;;;21.90;;
57341;SDS011;43175;51.002;18.316;2022-10-19T06:06:35;45.80;;;23.70;;
57341;SDS011;43175;51.002;18.316;2022-10-19T06:09:00;40.30;;;21.10;;
57341;SDS011;43175;51.002;18.316;2022-10-19T06:11:28;37.90;;;19.70;;
57341;SDS011;43175;51.002;18.316;2022-10-19T06:13:55;40.10;;;19.80;;
57341;SDS011;43175;51.002;18.316;2022-10-19T06:16:22;34.80;;;19.30;;
57341;SDS011;43175;51.002;18.316;2022-10-19T06:18:48;32.00;;;17.70;;
57341;SDS011;43175;51.002;18.316;2022-10-19T06:21:15;35.40;;;18.70;;
57341;SDS011;43175;51.002;18.316;2022-10-19T06:23:42;32.60;;;18.10;;
57341;SDS011;43175;51.002;18.316;2022-10-19T06:26:08;34.30;;;18.10;;
57341;SDS011;43175;51.002;18.316;2022-10-19T06:28:36;36.00;;;17.70;;
57341;SDS011;43175;51.002;18.316;2022-10-19T06:31:02;36.00;;;18.60;;
57341;SDS011;43175;51.002;18.316;2022-10-19T06:33:28;33.50;;;17.90;;
57341;SDS011;43175;51.002;18.316;2022-10-19T06:35:55;33.20;;;17.10;;
57341;SDS011;43175;51.002;18.316;2022-10-19T06:38:28;33.90;;;17.30;;
57341;SDS011;43175;51.002;18.316;2022-10-19T06:40:57;33.00;;;17.20;;
57341;SDS011;43175;51.002;18.316;2022-10-19T06:43:23;31.20;;;17.90;;
57341;SDS011;43175;51.002;18.316;2022-10-19T06:45:48;33.60;;;17.20;;
57341;SDS011;43175;51.002;18.316;2022-10-19T06:48:14;28.10;;;16.10;;
57341;SDS011;43175;51.002;18.316;2022-10-19T06:50:39;29.50;;;15.50;;
57341;SDS011;43175;51.002;18.316;2022-10-19T06:53:05;28.60;;;16.00;;
57341;SDS011;43175;51.002;18.316;2022-10-19T06:55:30;34.80;;;15.90;;
57341;SDS011;43175;51.002;18.316;2022-10-19T06:57:57;31.60;;;15.90;;
57341;SDS011;43175;51.002;18.316;2022-10-19T07:00:26;28.10;;;14.60;;
57341;SDS011;43175;51.002;18.316;2022-10-19T07:02:52;24.30;;;13.20;;
57341;SDS011;43175;51.002;18.316;2022-10-19T07:05:18;28.10;;;14.10;;
57341;SDS011;43175;51.002;18.316;2022-10-19T07:07:44;26.60;;;13.60;;
57341;SDS011;43175;51.002;18.316;2022-10-19T07:10:10;25.80;;;13.50;;
57341;SDS011;43175;51.002;18.316;2022-10-19T07:12:36;25.70;;;13.20;;
57341;SDS011;43175;51.002;18.316;2022-10-19T07:15:01;28.50;;;13.80;;
57341;SDS011;43175;51.002;18.316;2022-10-19T07:17:27;26.40;;;12.80;;
57341;SDS011;43175;51.002;18.316;2022-10-19T07:19:53;24.90;;;12.70;;
57341;SDS011;43175;51.002;18.316;2022-10-19T07:22:20;21.80;;;11.30;;
57341;SDS011;43175;51.002;18.316;2022-10-19T07:24:45;20.10;;;11.10;;
57341;SDS011;43175;51.002;18.316;2022-10-19T07:27:11;21.80;;;10.90;;
57341;SDS011;43175;51.002;18.316;2022-10-19T07:29:36;19.40;;;10.40;;
57341;SDS011;43175;51.002;18.316;2022-10-19T07:32:02;22.60;;;10.80;;
57341;SDS011;43175;51.002;18.316;2022-10-19T07:34:27;19.90;;;10.10;;
57341;SDS011;43175;51.002;18.316;2022-10-19T07:36:53;20.50;;;10.40;;
57341;SDS011;43175;51.002;18.316;2022-10-19T07:39:19;21.10;;;10.30;;
57341;SDS011;43175;51.002;18.316;2022-10-19T07:41:45;19.80;;;9.60;;
57341;SDS011;43175;51.002;18.316;2022-10-19T07:44:11;19.80;;;10.10;;
57341;SDS011;43175;51.002;18.316;2022-10-19T07:46:38;19.80;;;10.20;;
57341;SDS011;43175;51.002;18.316;2022-10-19T07:49:05;20.60;;;9.80;;
57341;SDS011;43175;51.002;18.316;2022-10-19T07:51:34;19.00;;;9.00;;
57341;SDS011;43175;51.002;18.316;2022-10-19T07:54:00;18.80;;;8.70;;
57341;SDS011;43175;51.002;18.316;2022-10-19T07:56:26;17.50;;;8.80;;
57341;SDS011;43175;51.002;18.316;2022-10-19T07:58:53;14.80;;;7.90;;
57341;SDS011;43175;51.002;18.316;2022-10-19T08:01:21;17.90;;;7.70;;
57341;SDS011;43175;51.002;18.316;2022-10-19T08:03:50;17.80;;;7.00;;
57341;SDS011;43175;51.002;18.316;2022-10-19T08:06:16;19.20;;;7.10;;
57341;SDS011;43175;51.002;18.316;2022-10-19T08:08:43;12.90;;;6.40;;
57341;SDS011;43175;51.002;18.316;2022-10-19T08:11:17;15.20;;;6.80;;
57341;SDS011;43175;51.002;18.316;2022-10-19T08:13:44;17.10;;;6.60;;
57341;SDS011;43175;51.002;18.316;2022-10-19T08:16:44;15.80;;;6.00;;
57341;SDS011;43175;51.002;18.316;2022-10-19T08:19:11;14.80;;;7.40;;
57341;SDS011;43175;51.002;18.316;2022-10-19T08:21:39;15.20;;;6.60;;
57341;SDS011;43175;51.002;18.316;2022-10-19T08:24:06;15.00;;;6.50;;
57341;SDS011;43175;51.002;18.316;2022-10-19T08:26:33;14.10;;;6.30;;
57341;SDS011;43175;51.002;18.316;2022-10-19T08:29:01;16.60;;;7.10;;
57341;SDS011;43175;51.002;18.316;2022-10-19T08:31:27;13.50;;;6.00;;
57341;SDS011;43175;51.002;18.316;2022-10-19T08:33:53;15.20;;;5.60;;
57341;SDS011;43175;51.002;18.316;2022-10-19T08:36:19;15.00;;;5.30;;
57341;SDS011;43175;51.002;18.316;2022-10-19T08:38:47;11.80;;;5.20;;
57341;SDS011;43175;51.002;18.316;2022-10-19T08:49:46;13.60;;;4.80;;
57341;SDS011;43175;51.002;18.316;2022-10-19T08:52:13;10.70;;;4.50;;
57341;SDS011;43175;51.002;18.316;2022-10-19T08:54:45;13.40;;;4.30;;
57341;SDS011;43175;51.002;18.316;2022-10-19T08:57:23;11.20;;;4.00;;
57341;SDS011;43175;51.002;18.316;2022-10-19T08:59:52;12.90;;;4.20;;
57341;SDS011;43175;51.002;18.316;2022-10-19T09:05:23;12.30;;;4.00;;
57341;SDS011;43175;51.002;18.316;2022-10-19T09:08:13;12.20;;;4.30;;
57341;SDS011;43175;51.002;18.316;2022-10-19T09:10:40;12.70;;;4.30;;
57341;SDS011;43175;51.002;18.316;2022-10-19T09:15:52;11.90;;;3.70;;
57341;SDS011;43175;51.002;18.316;2022-10-19T09:21:03;12.40;;;4.40;;
57341;SDS011;43175;51.002;18.316;2022-10-19T09:23:35;13.50;;;4.00;;
57341;SDS011;43175;51.002;18.316;2022-10-19T09:26:14;11.70;;;3.50;;
57341;SDS011;43175;51.002;18.316;2022-10-19T09:31:24;9.60;;;3.00;;
57341;SDS011;43175;51.002;18.316;2022-10-19T09:33:55;9.40;;;2.80;;
57341;SDS011;43175;51.002;18.316;2022-10-19T09:36:32;10.80;;;2.90;;
57341;SDS011;43175;51.002;18.316;2022-10-19T09:39:01;13.80;;;3.40;;
57341;SDS011;43175;51.002;18.316;2022-10-19T09:41:28;11.60;;;2.90;;
57341;SDS011;43175;51.002;18.316;2022-10-19T09:43:53;11.80;;;3.30;;
57341;SDS011;43175;51.002;18.316;2022-10-19T09:46:31;13.70;;;3.20;;
57341;SDS011;43175;51.002;18.316;2022-10-19T09:49:02;8.80;;;3.10;;
57341;SDS011;43175;51.002;18.316;2022-10-19T09:54:24;10.80;;;3.00;;
57341;SDS011;43175;51.002;18.316;2022-10-19T09:56:51;10.80;;;3.10;;
57341;SDS011;43175;51.002;18.316;2022-10-19T09:59:19;9.80;;;3.00;;
57341;SDS011;43175;51.002;18.316;2022-10-19T10:01:47;11.90;;;3.00;;
57341;SDS011;43175;51.002;18.316;2022-10-19T10:04:24;10.40;;;2.80;;
57341;SDS011;43175;51.002;18.316;2022-10-19T10:06:49;12.30;;;3.20;;
57341;SDS011;43175;51.002;18.316;2022-10-19T10:09:20;10.40;;;3.10;;
57341;SDS011;43175;51.002;18.316;2022-10-19T10:11:49;10.40;;;3.20;;
57341;SDS011;43175;51.002;18.316;2022-10-19T10:16:44;12.10;;;3.30;;
57341;SDS011;43175;51.002;18.316;2022-10-19T10:19:12;11.30;;;3.50;;
57341;SDS011;43175;51.002;18.316;2022-10-19T10:21:47;10.40;;;3.20;;
57341;SDS011;43175;51.002;18.316;2022-10-19T10:24:19;10.90;;;3.40;;
57341;SDS011;43175;51.002;18.316;2022-10-19T10:26:47;9.70;;;3.00;;
57341;SDS011;43175;51.002;18.316;2022-10-19T10:29:15;9.60;;;3.00;;
57341;SDS011;43175;51.002;18.316;2022-10-19T10:31:57;8.80;;;2.90;;
57341;SDS011;43175;51.002;18.316;2022-10-19T10:34:35;11.10;;;2.90;;
57341;SDS011;43175;51.002;18.316;2022-10-19T10:37:18;10.20;;;3.20;;
57341;SDS011;43175;51.002;18.316;2022-10-19T10:39:55;9.10;;;3.00;;
57341;SDS011;43175;51.002;18.316;2022-10-19T10:42:40;9.30;;;3.20;;
57341;SDS011;43175;51.002;18.316;2022-10-19T10:45:25;12.00;;;3.10;;
57341;SDS011;43175;51.002;18.316;2022-10-19T10:47:56;10.50;;;3.20;;
57341;SDS011;43175;51.002;18.316;2022-10-19T10:50:25;10.20;;;2.80;;
57341;SDS011;43175;51.002;18.316;2022-10-19T10:52:57;11.20;;;3.00;;
57341;SDS011;43175;51.002;18.316;2022-10-19T10:55:25;10.50;;;3.10;;
57341;SDS011;43175;51.002;18.316;2022-10-19T10:57:52;9.70;;;3.10;;
57341;SDS011;43175;51.002;18.316;2022-10-19T11:00:23;10.40;;;3.00;;
57341;SDS011;43175;51.002;18.316;2022-10-19T11:13:33;9.50;;;2.70;;
57341;SDS011;43175;51.002;18.316;2022-10-19T11:18:43;8.60;;;2.70;;
57341;SDS011;43175;51.002;18.316;2022-10-19T11:21:12;9.50;;;2.90;;
57341;SDS011;43175;51.002;18.316;2022-10-19T11:23:47;9.50;;;2.70;;
57341;SDS011;43175;51.002;18.316;2022-10-19T11:31:53;9.70;;;2.40;;
57341;SDS011;43175;51.002;18.316;2022-10-19T11:34:43;9.00;;;2.40;;
57341;SDS011;43175;51.002;18.316;2022-10-19T11:56:18;9.30;;;2.40;;
57341;SDS011;43175;51.002;18.316;2022-10-19T12:01:48;8.70;;;2.60;;
57341;SDS011;43175;51.002;18.316;2022-10-19T12:14:43;8.90;;;2.90;;
57341;SDS011;43175;51.002;18.316;2022-10-19T12:17:14;11.20;;;3.40;;
57341;SDS011;43175;51.002;18.316;2022-10-19T12:19:47;11.80;;;3.30;;
57341;SDS011;43175;51.002;18.316;2022-10-19T12:22:16;8.80;;;3.40;;
57341;SDS011;43175;51.002;18.316;2022-10-19T12:24:45;11.20;;;3.60;;
57341;SDS011;43175;51.002;18.316;2022-10-19T12:27:12;9.90;;;3.30;;
57341;SDS011;43175;51.002;18.316;2022-10-19T12:29:40;9.30;;;3.00;;
57341;SDS011;43175;51.002;18.316;2022-10-19T12:32:09;11.80;;;3.50;;
57341;SDS011;43175;51.002;18.316;2022-10-19T12:34:43;11.10;;;3.20;;
57341;SDS011;43175;51.002;18.316;2022-10-19T12:53:22;9.30;;;2.80;;
57341;SDS011;43175;51.002;18.316;2022-10-19T12:58:28;10.90;;;2.90;;
57341;SDS011;43175;51.002;18.316;2022-10-19T13:00:59;9.40;;;3.00;;
57341;SDS011;43175;51.002;18.316;2022-10-19T13:03:31;8.00;;;2.70;;
57341;SDS011;43175;51.002;18.316;2022-10-19T13:06:01;9.30;;;2.70;;
57341;SDS011;43175;51.002;18.316;2022-10-19T13:08:43;8.20;;;2.90;;
57341;SDS011;43175;51.002;18.316;2022-10-19T13:11:11;9.70;;;2.80;;
57341;SDS011;43175;51.002;18.316;2022-10-19T13:13:46;8.10;;;2.70;;
57341;SDS011;43175;51.002;18.316;2022-10-19T13:29:48;8.50;;;2.90;;
57341;SDS011;43175;51.002;18.316;2022-10-19T13:40:36;8.10;;;2.80;;
57341;SDS011;43175;51.002;18.316;2022-10-19T13:43:03;10.60;;;3.00;;
57341;SDS011;43175;51.002;18.316;2022-10-19T13:45:28;12.20;;;2.80;;
57341;SDS011;43175;51.002;18.316;2022-10-19T13:47:56;9.80;;;2.90;;
57341;SDS011;43175;51.002;18.316;2022-10-19T13:50:41;9.70;;;2.70;;
57341;SDS011;43175;51.002;18.316;2022-10-19T13:53:17;9.00;;;3.00;;
57341;SDS011;43175;51.002;18.316;2022-10-19T14:04:16;8.80;;;2.70;;
57341;SDS011;43175;51.002;18.316;2022-10-19T14:06:54;9.20;;;2.70;;
57341;SDS011;43175;51.002;18.316;2022-10-19T14:12:05;8.90;;;2.80;;
57341;SDS011;43175;51.002;18.316;2022-10-19T14:14:39;9.90;;;2.80;;
57341;SDS011;43175;51.002;18.316;2022-10-19T14:17:20;8.30;;;2.60;;
57341;SDS011;43175;51.002;18.316;2022-10-19T14:19:53;10.00;;;2.80;;
57341;SDS011;43175;51.002;18.316;2022-10-19T14:27:45;8.50;;;2.60;;
57341;SDS011;43175;51.002;18.316;2022-10-19T14:32:47;9.30;;;2.80;;
57341;SDS011;43175;51.002;18.316;2022-10-19T14:35:18;9.50;;;3.20;;
57341;SDS011;43175;51.002;18.316;2022-10-19T14:37:46;8.10;;;2.60;;
57341;SDS011;43175;51.002;18.316;2022-10-19T14:42:47;9.30;;;2.80;;
57341;SDS011;43175;51.002;18.316;2022-10-19T14:50:18;8.60;;;2.70;;
57341;SDS011;43175;51.002;18.316;2022-10-19T14:52:44;10.40;;;2.80;;
57341;SDS011;43175;51.002;18.316;2022-10-19T14:55:13;11.40;;;2.80;;
57341;SDS011;43175;51.002;18.316;2022-10-19T14:57:42;9.00;;;2.60;;
57341;SDS011;43175;51.002;18.316;2022-10-19T15:00:16;8.20;;;2.70;;
57341;SDS011;43175;51.002;18.316;2022-10-19T15:02:56;10.20;;;2.90;;
57341;SDS011;43175;51.002;18.316;2022-10-19T15:05:25;8.60;;;2.70;;
57341;SDS011;43175;51.002;18.316;2022-10-19T15:07:53;8.80;;;2.90;;
57341;SDS011;43175;51.002;18.316;2022-10-19T15:12:49;8.50;;;2.90;;
57341;SDS011;43175;51.002;18.316;2022-10-19T15:15:21;10.80;;;2.90;;
57341;SDS011;43175;51.002;18.316;2022-10-19T15:17:56;10.00;;;3.00;;
57341;SDS011;43175;51.002;18.316;2022-10-19T15:22:54;9.90;;;3.30;;
57341;SDS011;43175;51.002;18.316;2022-10-19T15:25:26;9.90;;;3.00;;
57341;SDS011;43175;51.002;18.316;2022-10-19T15:28:16;9.50;;;3.60;;
57341;SDS011;43175;51.002;18.316;2022-10-19T15:30:43;9.40;;;3.00;;
57341;SDS011;43175;51.002;18.316;2022-10-19T15:33:12;11.70;;;3.30;;
57341;SDS011;43175;51.002;18.316;2022-10-19T15:35:39;11.30;;;3.50;;
57341;SDS011;43175;51.002;18.316;2022-10-19T15:38:14;11.70;;;3.40;;
57341;SDS011;43175;51.002;18.316;2022-10-19T15:40:43;10.70;;;3.60;;
57341;SDS011;43175;51.002;18.316;2022-10-19T15:48:46;10.60;;;4.50;;
57341;SDS011;43175;51.002;18.316;2022-10-19T15:56:17;10.30;;;4.30;;
57341;SDS011;43175;51.002;18.316;2022-10-19T15:58:43;13.20;;;4.70;;
57341;SDS011;43175;51.002;18.316;2022-10-19T16:01:10;12.80;;;5.30;;
57341;SDS011;43175;51.002;18.316;2022-10-19T16:03:40;12.90;;;5.20;;
57341;SDS011;43175;51.002;18.316;2022-10-19T16:06:06;14.30;;;6.00;;
57341;SDS011;43175;51.002;18.316;2022-10-19T16:08:31;12.50;;;5.40;;
57341;SDS011;43175;51.002;18.316;2022-10-19T16:10:57;13.70;;;5.80;;
57341;SDS011;43175;51.002;18.316;2022-10-19T16:13:22;13.30;;;5.80;;
57341;SDS011;43175;51.002;18.316;2022-10-19T16:15:48;11.70;;;5.70;;
57341;SDS011;43175;51.002;18.316;2022-10-19T16:18:14;13.80;;;6.40;;
57341;SDS011;43175;51.002;18.316;2022-10-19T16:20:40;14.80;;;6.20;;
57341;SDS011;43175;51.002;18.316;2022-10-19T16:23:07;13.40;;;6.40;;
57341;SDS011;43175;51.002;18.316;2022-10-19T16:25:34;13.00;;;6.00;;
57341;SDS011;43175;51.002;18.316;2022-10-19T16:27:59;17.10;;;7.30;;
57341;SDS011;43175;51.002;18.316;2022-10-19T16:30:25;14.90;;;7.20;;
57341;SDS011;43175;51.002;18.316;2022-10-19T16:32:50;16.30;;;7.80;;
57341;SDS011;43175;51.002;18.316;2022-10-19T16:35:16;17.10;;;8.90;;
57341;SDS011;43175;51.002;18.316;2022-10-19T16:37:41;16.40;;;7.90;;
57341;SDS011;43175;51.002;18.316;2022-10-19T16:40:07;16.90;;;7.70;;
57341;SDS011;43175;51.002;18.316;2022-10-19T16:42:33;14.70;;;7.30;;
57341;SDS011;43175;51.002;18.316;2022-10-19T16:44:59;15.10;;;7.30;;
57341;SDS011;43175;51.002;18.316;2022-10-19T16:47:25;17.90;;;7.40;;
57341;SDS011;43175;51.002;18.316;2022-10-19T16:49:57;16.30;;;8.00;;
57341;SDS011;43175;51.002;18.316;2022-10-19T16:52:27;15.00;;;7.30;;
57341;SDS011;43175;51.002;18.316;2022-10-19T16:54:53;14.70;;;7.50;;
57341;SDS011;43175;51.002;18.316;2022-10-19T16:57:19;14.90;;;7.60;;
57341;SDS011;43175;51.002;18.316;2022-10-19T16:59:44;13.70;;;6.60;;
57341;SDS011;43175;51.002;18.316;2022-10-19T17:02:10;12.40;;;5.90;;
57341;SDS011;43175;51.002;18.316;2022-10-19T17:04:36;12.30;;;6.00;;
57341;SDS011;43175;51.002;18.316;2022-10-19T17:07:01;13.80;;;5.90;;
57341;SDS011;43175;51.002;18.316;2022-10-19T17:09:27;13.00;;;5.60;;
57341;SDS011;43175;51.002;18.316;2022-10-19T17:11:52;12.20;;;5.40;;
57341;SDS011;43175;51.002;18.316;2022-10-19T17:14:18;13.30;;;5.80;;
57341;SDS011;43175;51.002;18.316;2022-10-19T17:16:43;12.90;;;6.10;;
57341;SDS011;43175;51.002;18.316;2022-10-19T17:19:09;13.40;;;6.10;;
57341;SDS011;43175;51.002;18.316;2022-10-19T17:21:36;13.00;;;6.20;;
57341;SDS011;43175;51.002;18.316;2022-10-19T17:24:03;13.70;;;6.10;;
57341;SDS011;43175;51.002;18.316;2022-10-19T17:26:32;13.60;;;6.40;;
57341;SDS011;43175;51.002;18.316;2022-10-19T17:28:59;15.80;;;7.10;;